Terminal Aerodrome Forecast
Issued by NWS

Home | Current Version | Previous Version | Text Only | Print | Product List | Glossary On
Versions: 1 2 3 4 5 6 7 8 9 10 11 12
000
FTPA31 PHFO 220520
TAFMDY
TAF
PMDY 220520Z 2206/2306 19018G28KT P6SM FEW020 BKN040
     FM222000 21018G28KT P6SM VCSH FEW008 SCT015 BKN035
     FM230100 35012G20KT P6SM SCT015 BKN040=

USA.gov is the U.S. government's official web portal to all federal, state and local government web resources and services.